Crooks, South Dakota
Current Conditions -  °F | °C
As of 10:56 AM on Friday 28 Nov 2014 (Local Time) from KFSD Reporting Station
Broken Clouds Broken Clouds  
Wind Chill: 20°   Ceiling: 13000
Heat Index: 28°   Visibility: 10mi
Dew Point: 23°   Wind: 8mph
Humidity: 81%   Direction: 100°E
Pressure: 29.79"   Gusts: NA
Location:  43.66°N, 96.81°W
Report Text: KFSD 281656Z 10007KT 10SM BKN130 BKN250 M02/M05 A2979 RMK AO2 SLP109 T10221050
Loading
Personal Weather Stations






























Interactive Weather Map New forecast layout! Learn more

10-Day Weather Forecast

Advertisements
Track Severe Weather on mobile